createdAt,value
2024-02-19T00:01:52.265Z,8.80
2024-02-19T00:04:20.532Z,8.80
2024-02-19T00:06:49.590Z,8.80
2024-02-19T00:09:18.395Z,8.80
2024-02-19T00:11:47.543Z,8.80
2024-02-19T00:14:15.720Z,8.80
2024-02-19T00:16:45.262Z,8.70
2024-02-19T00:19:13.433Z,8.70
2024-02-19T00:21:41.655Z,8.70
2024-02-19T00:24:10.197Z,8.70
2024-02-19T00:26:38.549Z,8.70
2024-02-19T00:29:07.844Z,8.70
2024-02-19T00:31:35.913Z,8.70
2024-02-19T00:34:05.822Z,8.70
2024-02-19T00:36:34.202Z,8.70
2024-02-19T00:39:02.300Z,8.70
2024-02-19T00:41:30.369Z,8.70
2024-02-19T00:43:58.459Z,8.70
2024-02-19T00:46:26.587Z,8.70
2024-02-19T00:48:54.884Z,8.80
2024-02-19T00:51:24.569Z,8.80
2024-02-19T00:53:52.696Z,8.80
2024-02-19T00:56:20.774Z,8.80
2024-02-19T00:58:49.051Z,8.80
2024-02-19T01:01:17.353Z,8.80
2024-02-19T01:03:46.226Z,8.80
2024-02-19T01:06:14.637Z,8.80
2024-02-19T01:08:44.520Z,8.80
2024-02-19T01:11:13.036Z,8.80
2024-02-19T01:13:42.894Z,8.80
2024-02-19T01:16:11.591Z,8.80
2024-02-19T01:18:39.931Z,8.80
2024-02-19T01:21:08.149Z,8.70
2024-02-19T01:23:37.554Z,8.80
2024-02-19T01:26:07.196Z,8.80
2024-02-19T01:28:35.751Z,8.70
2024-02-19T01:31:04.689Z,8.80
2024-02-19T01:33:32.831Z,8.80
2024-02-19T01:36:01.055Z,8.80
2024-02-19T01:38:29.155Z,8.70
2024-02-19T01:40:57.297Z,8.70
2024-02-19T01:43:28.387Z,8.80
2024-02-19T01:45:56.637Z,8.80
2024-02-19T01:48:24.998Z,8.70
2024-02-19T01:50:53.602Z,8.70
2024-02-19T01:53:23.585Z,8.70
2024-02-19T01:55:51.927Z,8.70
2024-02-19T01:58:20.284Z,8.80
2024-02-19T02:00:52.446Z,8.70
2024-02-19T02:03:23.570Z,8.70
2024-02-19T02:05:51.990Z,8.70
2024-02-19T02:08:20.164Z,8.70
2024-02-19T02:10:48.379Z,8.70
2024-02-19T02:13:17.487Z,8.60
2024-02-19T02:15:45.878Z,8.60
2024-02-19T02:18:17.071Z,8.60
2024-02-19T02:20:46.034Z,8.60
2024-02-19T02:23:16.116Z,8.60
2024-02-19T02:25:44.197Z,8.50
2024-02-19T02:28:13.733Z,8.50
2024-02-19T02:30:41.925Z,8.50
2024-02-19T02:33:10.219Z,8.50
2024-02-19T02:35:38.447Z,8.50
2024-02-19T02:38:07.293Z,8.50
2024-02-19T02:40:35.821Z,8.50
2024-02-19T02:43:04.381Z,8.50
2024-02-19T02:45:33.856Z,8.50
2024-02-19T02:48:02.108Z,8.50
2024-02-19T02:50:30.258Z,8.50
2024-02-19T02:52:58.416Z,8.50
2024-02-19T02:55:26.675Z,8.40
2024-02-19T02:57:54.921Z,8.40
2024-02-19T03:00:23.374Z,8.50
2024-02-19T03:02:53.280Z,8.40
2024-02-19T03:05:21.491Z,8.40
2024-02-19T03:07:49.634Z,8.40
2024-02-19T03:10:18.849Z,8.40
2024-02-19T03:12:47.091Z,8.40
2024-02-19T03:15:15.335Z,8.40
2024-02-19T03:17:43.436Z,8.40
2024-02-19T03:20:14.950Z,8.50
2024-02-19T03:22:44.250Z,8.50
2024-02-19T03:25:12.495Z,8.50
2024-02-19T03:27:41.509Z,8.50
2024-02-19T03:30:10.872Z,8.40
2024-02-19T03:32:39.432Z,8.40
2024-02-19T03:35:08.028Z,8.40
2024-02-19T03:37:37.551Z,8.50
2024-02-19T03:40:07.936Z,8.50
2024-02-19T03:42:36.681Z,8.50
2024-02-19T03:45:05.982Z,8.50
2024-02-19T03:47:35.540Z,8.50
2024-02-19T03:50:03.864Z,8.50
2024-02-19T03:52:32.023Z,8.50
2024-02-19T03:55:01.506Z,8.50
2024-02-19T03:57:30.231Z,8.50
2024-02-19T03:59:58.462Z,8.50
2024-02-19T04:02:28.520Z,8.50
2024-02-19T04:04:56.779Z,8.50
2024-02-19T04:07:25.692Z,8.50
2024-02-19T04:09:53.969Z,8.50
2024-02-19T04:12:23.504Z,8.50
2024-02-19T04:14:51.646Z,8.50
2024-02-19T04:17:19.880Z,8.50
2024-02-19T04:19:48.945Z,8.50
2024-02-19T04:22:17.292Z,8.50
2024-02-19T04:24:45.459Z,8.50
2024-02-19T04:27:15.545Z,8.50
2024-02-19T04:29:45.149Z,8.50
2024-02-19T04:32:13.174Z,8.50
2024-02-19T04:34:41.412Z,8.50
2024-02-19T04:37:10.196Z,8.50
2024-02-19T04:39:38.642Z,8.60
2024-02-19T04:42:06.849Z,8.50
2024-02-19T04:44:35.018Z,8.50
2024-02-19T04:47:04.717Z,8.60
2024-02-19T04:49:33.116Z,8.60
2024-02-19T04:52:01.376Z,8.60
2024-02-19T04:54:29.732Z,8.60
2024-02-19T04:56:57.817Z,8.50
2024-02-19T04:59:26.018Z,8.60
2024-02-19T05:01:54.919Z,8.50
2024-02-19T05:04:25.973Z,8.60
2024-02-19T05:06:55.553Z,8.50
2024-02-19T05:09:23.738Z,8.60
2024-02-19T05:11:51.777Z,8.50
2024-02-19T05:14:19.890Z,8.50
2024-02-19T05:16:48.192Z,8.60
2024-02-19T05:19:16.440Z,8.50
2024-02-19T05:21:45.960Z,8.50
2024-02-19T05:24:16.367Z,8.60
2024-02-19T05:26:44.540Z,8.60
2024-02-19T05:29:13.061Z,8.60
2024-02-19T05:31:41.732Z,8.60
2024-02-19T05:34:10.371Z,8.60
2024-02-19T05:36:39.143Z,8.60
2024-02-19T05:39:12.090Z,8.50
2024-02-19T05:41:40.730Z,8.50
2024-02-19T05:44:09.550Z,8.50
2024-02-19T05:46:37.733Z,8.50
2024-02-19T05:49:06.063Z,8.40
2024-02-19T05:51:34.288Z,8.40
2024-02-19T05:54:02.495Z,8.30
2024-02-19T05:56:31.990Z,8.30
2024-02-19T05:59:00.060Z,8.30
2024-02-19T06:01:28.424Z,8.30
2024-02-19T06:03:56.842Z,8.30
2024-02-19T06:06:25.312Z,8.30
2024-02-19T06:08:53.583Z,8.20
2024-02-19T06:11:22.929Z,8.30
2024-02-19T06:13:54.197Z,8.20
2024-02-19T06:16:22.804Z,8.20
2024-02-19T06:18:51.139Z,8.20
2024-02-19T06:21:19.413Z,8.20
2024-02-19T06:23:47.586Z,8.20
2024-02-19T06:26:15.805Z,8.20
2024-02-19T06:28:44.032Z,8.10
2024-02-19T06:31:13.507Z,8.10
2024-02-19T06:33:41.731Z,8.10
2024-02-19T06:36:10.044Z,8.10
2024-02-19T06:38:38.153Z,8.10
2024-02-19T06:41:06.357Z,8.10
2024-02-19T06:43:34.525Z,8.20
2024-02-19T06:46:02.834Z,8.20
2024-02-19T06:48:32.477Z,8.20
2024-02-19T06:51:00.582Z,8.20
2024-02-19T06:53:28.807Z,8.10
2024-02-19T06:55:56.904Z,8.20
2024-02-19T06:58:25.101Z,8.20
2024-02-19T07:00:53.331Z,8.20
2024-02-19T07:03:21.926Z,8.20
2024-02-19T07:05:51.588Z,8.30
2024-02-19T07:08:20.764Z,8.20
2024-02-19T07:10:48.915Z,8.30
2024-02-19T07:13:17.148Z,8.30
2024-02-19T07:15:45.308Z,8.30
2024-02-19T07:18:14.406Z,8.30
2024-02-19T07:20:42.706Z,8.40
2024-02-19T07:23:12.320Z,8.40
2024-02-19T07:25:41.224Z,8.40
2024-02-19T07:28:09.396Z,8.40
2024-02-19T07:30:39.259Z,8.40
2024-02-19T07:33:07.626Z,8.40
2024-02-19T07:35:36.004Z,8.40
2024-02-19T07:38:04.216Z,8.40
2024-02-19T07:40:35.590Z,8.40
2024-02-19T07:43:04.807Z,8.40
2024-02-19T07:45:33.036Z,8.40
2024-02-19T07:48:01.581Z,8.50
2024-02-19T07:50:29.934Z,8.50
2024-02-19T07:52:58.132Z,8.50
2024-02-19T07:55:26.343Z,8.50
2024-02-19T07:57:56.032Z,8.50
2024-02-19T08:00:24.806Z,8.50
2024-02-19T08:02:52.888Z,8.50
2024-02-19T08:05:21.243Z,8.50
2024-02-19T08:07:49.541Z,8.50
2024-02-19T08:10:17.794Z,8.50
2024-02-19T08:12:46.067Z,8.50
2024-02-19T08:15:15.616Z,8.40
2024-02-19T08:17:43.880Z,8.30
2024-02-19T08:20:12.439Z,8.30
2024-02-19T08:22:43.744Z,8.30
2024-02-19T08:25:13.229Z,8.30
2024-02-19T08:27:41.809Z,8.30
2024-02-19T08:30:10.305Z,8.30
2024-02-19T08:32:39.874Z,8.40
2024-02-19T08:35:08.297Z,8.30
2024-02-19T08:37:36.766Z,8.40
2024-02-19T08:40:06.094Z,8.40
2024-02-19T08:42:34.230Z,8.40
2024-02-19T08:45:04.390Z,8.40
2024-02-19T08:47:32.963Z,8.50
2024-02-19T08:50:02.700Z,8.50
2024-02-19T08:52:31.633Z,8.50
2024-02-19T08:55:00.259Z,8.50
2024-02-19T08:57:28.590Z,8.50
2024-02-19T08:59:56.632Z,8.60
2024-02-19T09:02:25.678Z,8.60
2024-02-19T09:04:54.039Z,8.70
2024-02-19T09:07:25.236Z,8.70
2024-02-19T09:09:53.499Z,8.70
2024-02-19T09:12:24.506Z,8.70
2024-02-19T09:14:53.562Z,8.80
2024-02-19T09:17:21.765Z,8.80
2024-02-19T09:19:50.005Z,8.90
2024-02-19T09:22:18.179Z,8.90
2024-02-19T09:24:49.246Z,9.00
2024-02-19T09:27:17.444Z,9.00
2024-02-19T09:29:46.332Z,9.00
2024-02-19T09:32:14.513Z,9.00
2024-02-19T09:34:43.910Z,9.00
2024-02-19T09:37:12.807Z,9.10
2024-02-19T09:39:41.558Z,9.20
2024-02-19T09:42:11.457Z,9.20
2024-02-19T09:44:39.959Z,9.30
2024-02-19T09:47:09.160Z,9.30
2024-02-19T09:49:38.477Z,9.40
2024-02-19T09:52:10.417Z,9.50
2024-02-19T09:54:40.173Z,9.50
2024-02-19T09:57:11.853Z,9.60
2024-02-19T09:59:44.117Z,9.70
2024-02-19T10:02:13.311Z,9.80
2024-02-19T10:04:41.838Z,9.80
2024-02-19T10:07:10.252Z,9.90
2024-02-19T10:09:38.660Z,10.00
2024-02-19T10:12:07.604Z,9.90
2024-02-19T10:14:37.207Z,9.90
2024-02-19T10:17:06.385Z,9.90
2024-02-19T10:19:34.814Z,9.80
2024-02-19T10:22:03.061Z,9.80
2024-02-19T10:24:32.035Z,9.70
2024-02-19T10:27:00.220Z,9.60
2024-02-19T10:29:28.414Z,9.70
2024-02-19T10:31:57.933Z,9.60
2024-02-19T10:34:26.104Z,9.60
2024-02-19T10:36:53.464Z,9.60
2024-02-19T10:39:21.697Z,9.60
2024-02-19T10:41:49.905Z,9.60
2024-02-19T10:44:18.400Z,9.50
2024-02-19T10:46:46.972Z,9.40
2024-02-19T10:49:20.855Z,9.40
2024-02-19T10:51:49.294Z,9.40
2024-02-19T10:54:20.664Z,9.40
2024-02-19T10:56:49.171Z,9.40
2024-02-19T10:59:17.390Z,9.30
2024-02-19T11:01:48.819Z,9.30
2024-02-19T11:04:27.101Z,9.20
2024-02-19T11:06:57.693Z,9.20
2024-02-19T11:09:33.087Z,9.10
2024-02-19T11:12:02.604Z,9.10
2024-02-19T11:14:34.104Z,9.20
2024-02-19T11:17:03.414Z,9.20
2024-02-19T11:19:40.432Z,9.20
2024-02-19T11:22:23.920Z,9.30
2024-02-19T11:24:53.183Z,9.30
2024-02-19T11:27:21.390Z,9.50
2024-02-19T11:29:56.074Z,9.50
2024-02-19T11:32:24.463Z,9.60
2024-02-19T11:34:54.038Z,9.70
2024-02-19T11:37:24.807Z,9.70
2024-02-19T11:39:52.892Z,9.70
2024-02-19T11:42:23.131Z,9.70
2024-02-19T11:44:51.368Z,9.70
2024-02-19T11:47:19.510Z,9.70
2024-02-19T11:49:49.085Z,9.60
2024-02-19T11:52:18.756Z,9.60
2024-02-19T11:54:53.982Z,9.70
2024-02-19T11:57:26.629Z,9.70
2024-02-19T11:59:55.978Z,9.80
2024-02-19T12:02:24.133Z,9.80
2024-02-19T12:04:52.968Z,9.70
2024-02-19T12:07:23.397Z,9.70
2024-02-19T12:09:51.653Z,9.70
2024-02-19T12:12:22.063Z,9.60
2024-02-19T12:14:50.432Z,9.50
2024-02-19T12:17:18.469Z,9.50
2024-02-19T12:19:46.740Z,9.40
2024-02-19T12:22:15.543Z,9.40
2024-02-19T12:24:45.052Z,9.40
2024-02-19T12:27:13.104Z,9.30
2024-02-19T12:29:41.128Z,9.30
2024-02-19T12:32:09.557Z,9.20
2024-02-19T12:34:40.333Z,9.20
2024-02-19T12:37:08.877Z,9.20
2024-02-19T12:39:36.994Z,9.20
2024-02-19T12:42:11.157Z,9.20
2024-02-19T12:44:39.679Z,9.20
2024-02-19T12:47:07.803Z,9.30
2024-02-19T12:49:39.786Z,9.30
2024-02-19T12:52:11.307Z,9.30
2024-02-19T12:54:42.874Z,9.30
2024-02-19T12:57:12.425Z,9.30
2024-02-19T12:59:40.563Z,9.30
2024-02-19T13:02:14.833Z,9.30
2024-02-19T13:04:43.372Z,9.40
2024-02-19T13:07:11.646Z,9.40
2024-02-19T13:09:39.728Z,9.40
2024-02-19T13:12:10.219Z,9.40
2024-02-19T13:14:40.653Z,9.30
2024-02-19T13:17:13.694Z,9.20
2024-02-19T13:19:46.706Z,9.20
2024-02-19T13:22:15.176Z,9.20
2024-02-19T13:24:43.359Z,9.20
2024-02-19T13:27:12.891Z,9.20
2024-02-19T13:29:42.350Z,9.20
2024-02-19T13:32:10.669Z,9.30
2024-02-19T13:34:39.278Z,9.20
2024-02-19T13:37:08.063Z,9.20
2024-02-19T13:39:36.358Z,9.20
2024-02-19T13:42:05.413Z,9.20
2024-02-19T13:44:33.761Z,9.20
2024-02-19T13:47:03.295Z,9.30
2024-02-19T13:49:31.479Z,9.20
2024-02-19T13:51:59.678Z,9.30
2024-02-19T13:54:27.821Z,9.30
2024-02-19T13:56:59.537Z,9.30
2024-02-19T13:59:28.803Z,9.30
2024-02-19T14:01:57.138Z,9.30
2024-02-19T14:04:26.661Z,9.30
2024-02-19T14:06:54.924Z,9.30
2024-02-19T14:09:23.154Z,9.30
2024-02-19T14:11:51.861Z,9.30
2024-02-19T14:14:20.736Z,9.30
2024-02-19T14:16:48.921Z,9.40
2024-02-19T14:19:17.253Z,9.40
2024-02-19T14:21:48.755Z,9.40
2024-02-19T14:24:17.771Z,9.40
2024-02-19T14:26:45.951Z,9.40
2024-02-19T14:29:14.654Z,9.40
2024-02-19T14:31:42.713Z,9.40
2024-02-19T14:34:10.921Z,9.40
2024-02-19T14:36:39.479Z,9.40
2024-02-19T14:39:11.729Z,9.40
2024-02-19T14:41:39.951Z,9.40
2024-02-19T14:44:07.944Z,9.40
2024-02-19T14:46:37.381Z,9.40
2024-02-19T14:49:10.630Z,9.30
2024-02-19T14:51:39.047Z,9.30
2024-02-19T14:54:08.945Z,9.10
2024-02-19T14:56:39.438Z,9.10
2024-02-19T14:59:07.702Z,9.10
2024-02-19T15:01:35.861Z,9.10
2024-02-19T15:04:04.770Z,9.10
2024-02-19T15:06:33.094Z,9.10
2024-02-19T15:09:01.377Z,9.10
2024-02-19T15:11:33.053Z,9.10
2024-02-19T15:14:01.376Z,9.10
2024-02-19T15:16:28.822Z,9.00
2024-02-19T15:18:57.294Z,9.00
2024-02-19T15:21:26.960Z,9.00
2024-02-19T15:23:55.125Z,8.90
2024-02-19T15:26:23.315Z,9.00
2024-02-19T15:28:52.658Z,8.90
2024-02-19T15:31:20.768Z,8.90
2024-02-19T15:33:48.894Z,8.90
2024-02-19T15:36:17.156Z,8.90
2024-02-19T15:38:47.172Z,8.80
2024-02-19T15:50:14.404Z,8.70
2024-02-19T15:52:46.435Z,8.70
2024-02-19T15:55:17.061Z,8.60
2024-02-19T15:57:45.367Z,8.50
2024-02-19T16:00:14.839Z,8.30
2024-02-19T16:02:42.978Z,8.00
2024-02-19T16:05:11.791Z,7.80
2024-02-19T16:07:41.502Z,7.70
2024-02-19T16:10:12.951Z,7.70
2024-02-19T16:12:41.240Z,7.60
2024-02-19T16:15:10.045Z,7.60
2024-02-19T16:17:38.166Z,7.50
2024-02-19T16:20:08.851Z,7.50
2024-02-19T16:22:37.386Z,7.50
2024-02-19T16:25:09.361Z,7.60
2024-02-19T16:27:37.813Z,7.60
2024-02-19T16:30:09.429Z,7.60
2024-02-19T16:32:38.770Z,7.70
2024-02-19T16:35:07.924Z,7.70
2024-02-19T16:37:36.380Z,7.80
2024-02-19T16:40:07.064Z,7.80
2024-02-19T16:42:36.964Z,7.80
2024-02-19T16:45:05.812Z,7.90
2024-02-19T16:47:33.971Z,7.80
2024-02-19T16:50:02.518Z,7.90
2024-02-19T16:52:30.927Z,7.90
2024-02-19T16:54:59.212Z,7.80
2024-02-19T16:57:28.812Z,7.90
2024-02-19T16:59:56.915Z,7.90
2024-02-19T17:02:25.181Z,7.90
2024-02-19T17:04:53.685Z,7.90
2024-02-19T17:07:22.950Z,7.90
2024-02-19T17:09:51.262Z,7.90
2024-02-19T17:12:19.513Z,7.90
2024-02-19T17:14:49.129Z,8.00
2024-02-19T17:17:17.312Z,8.00
2024-02-19T17:19:45.624Z,8.00
2024-02-19T17:22:13.884Z,8.00
2024-02-19T17:24:43.201Z,8.00
2024-02-19T17:27:11.323Z,8.00
2024-02-19T17:29:41.943Z,8.00
2024-02-19T17:32:11.375Z,8.10
2024-02-19T17:34:40.302Z,8.10
2024-02-19T17:37:08.495Z,8.10
2024-02-19T17:39:37.017Z,8.00
2024-02-19T17:42:05.433Z,8.00
2024-02-19T17:44:33.812Z,8.00
2024-02-19T17:47:03.317Z,8.00
2024-02-19T17:49:33.386Z,8.10
2024-02-19T17:52:01.729Z,8.00
2024-02-19T17:54:30.856Z,8.00
2024-02-19T17:57:02.013Z,8.00
2024-02-19T17:59:33.915Z,8.00
2024-02-19T18:02:02.234Z,8.00
2024-02-19T18:04:32.000Z,8.00
2024-02-19T18:07:02.032Z,8.00
2024-02-19T18:09:30.468Z,8.00
2024-02-19T18:11:58.579Z,8.00
2024-02-19T18:14:29.163Z,8.00
2024-02-19T18:16:57.846Z,8.00
2024-02-19T18:19:26.091Z,8.00
2024-02-19T18:21:59.184Z,8.00
2024-02-19T18:24:27.760Z,8.00
2024-02-19T18:26:56.062Z,8.00
2024-02-19T18:29:25.554Z,8.00
2024-02-19T18:31:56.798Z,8.00
2024-02-19T18:34:26.234Z,8.00
2024-02-19T18:36:59.683Z,8.00
2024-02-19T18:39:29.336Z,8.00
2024-02-19T18:41:58.743Z,8.00
2024-02-19T18:44:26.959Z,8.00
2024-02-19T18:46:55.344Z,8.00
2024-02-19T18:49:25.837Z,8.00
2024-02-19T18:51:55.357Z,8.00
2024-02-19T18:54:23.581Z,8.00
2024-02-19T18:56:51.777Z,8.00
2024-02-19T18:59:19.833Z,8.00
2024-02-19T19:01:48.328Z,8.00
2024-02-19T19:04:17.500Z,8.00
2024-02-19T19:06:45.720Z,8.00
2024-02-19T19:09:15.244Z,7.90
2024-02-19T19:11:43.854Z,7.90
2024-02-19T19:14:14.214Z,8.00
2024-02-19T19:16:43.092Z,7.90
2024-02-19T19:19:11.458Z,7.90
2024-02-19T19:21:39.709Z,7.80
2024-02-19T19:24:08.481Z,7.80
2024-02-19T19:26:37.958Z,7.80
2024-02-19T19:29:09.615Z,7.80
2024-02-19T19:31:37.945Z,7.80
2024-02-19T19:34:06.259Z,7.80
2024-02-19T19:36:34.440Z,7.90
2024-02-19T19:39:04.360Z,7.80
2024-02-19T19:41:35.522Z,7.90
2024-02-19T19:44:06.451Z,7.80
2024-02-19T19:46:34.815Z,7.80
2024-02-19T19:49:05.884Z,7.80
2024-02-19T19:51:34.280Z,7.80
2024-02-19T19:54:02.402Z,7.80
2024-02-19T19:56:30.667Z,7.90
2024-02-19T19:58:59.577Z,7.80
2024-02-19T20:01:29.348Z,7.80
2024-02-19T20:03:57.602Z,7.80
2024-02-19T20:06:25.920Z,7.80
2024-02-19T20:08:54.634Z,7.80
2024-02-19T20:11:23.731Z,7.90
2024-02-19T20:13:52.108Z,7.90
2024-02-19T20:16:21.110Z,7.90
2024-02-19T20:18:50.695Z,7.90
2024-02-19T20:21:19.018Z,7.90
2024-02-19T20:23:47.192Z,7.90
2024-02-19T20:26:15.434Z,7.90
2024-02-19T20:28:43.504Z,7.90
2024-02-19T20:31:11.616Z,7.90
2024-02-19T20:33:39.941Z,7.90
2024-02-19T20:36:09.714Z,8.00
2024-02-19T20:38:38.552Z,8.00
2024-02-19T20:41:06.813Z,8.00
2024-02-19T20:43:36.384Z,8.00
2024-02-19T20:46:04.756Z,8.00
2024-02-19T20:48:33.151Z,8.00
2024-02-19T20:51:01.281Z,8.00
2024-02-19T20:53:30.711Z,8.00
2024-02-19T20:55:58.861Z,8.00
2024-02-19T20:58:27.522Z,7.90
2024-02-19T21:00:55.760Z,7.90
2024-02-19T21:03:32.222Z,7.90
2024-02-19T21:06:04.460Z,7.80
2024-02-19T21:08:33.993Z,7.80
2024-02-19T21:11:06.238Z,7.80
2024-02-19T21:13:36.596Z,7.80
2024-02-19T21:16:05.162Z,7.70
2024-02-19T21:18:42.106Z,7.70
2024-02-19T21:21:22.104Z,7.70
2024-02-19T21:23:59.731Z,7.70
2024-02-19T21:26:29.265Z,7.60
2024-02-19T21:28:57.433Z,7.60
2024-02-19T21:31:25.854Z,7.60
2024-02-19T21:33:54.192Z,7.60
2024-02-19T21:36:22.696Z,7.60
2024-02-19T21:38:51.287Z,7.60
2024-02-19T21:41:20.961Z,7.60
2024-02-19T21:43:49.038Z,7.60
2024-02-19T21:46:17.942Z,7.60
2024-02-19T21:48:46.377Z,7.50
2024-02-19T21:51:14.587Z,7.50
2024-02-19T21:53:42.873Z,7.50
2024-02-19T21:56:11.343Z,7.50
2024-02-19T21:58:40.810Z,7.50
2024-02-19T22:01:09.076Z,7.50
2024-02-19T22:03:37.278Z,7.50
2024-02-19T22:06:06.864Z,7.50
2024-02-19T22:08:35.014Z,7.40
2024-02-19T22:11:03.781Z,7.50
2024-02-19T22:13:31.988Z,7.50
2024-02-19T22:16:01.508Z,7.50
2024-02-19T22:18:29.626Z,7.50
2024-02-19T22:20:58.006Z,7.50
2024-02-19T22:23:26.186Z,7.50
2024-02-19T22:25:54.486Z,7.50
2024-02-19T22:28:22.601Z,7.50
2024-02-19T22:30:50.801Z,7.50
2024-02-19T22:33:20.358Z,7.50
2024-02-19T22:35:48.566Z,7.50
2024-02-19T22:38:16.614Z,7.50
2024-02-19T22:40:44.971Z,7.50
2024-02-19T22:43:13.416Z,7.50
2024-02-19T22:45:41.885Z,7.50
2024-02-19T22:48:10.943Z,7.50
2024-02-19T22:50:41.630Z,7.50
2024-02-19T22:53:10.415Z,7.50
2024-02-19T22:55:38.752Z,7.50
2024-02-19T22:58:06.859Z,7.40
2024-02-19T23:00:37.201Z,7.40
2024-02-19T23:03:07.142Z,7.40
2024-02-19T23:05:35.712Z,7.40
2024-02-19T23:08:06.429Z,7.40
2024-02-19T23:10:34.757Z,7.50
2024-02-19T23:13:04.716Z,7.50
2024-02-19T23:15:32.981Z,7.50
2024-02-19T23:18:03.221Z,7.50
2024-02-19T23:20:31.355Z,7.50
2024-02-19T23:23:00.466Z,7.50
2024-02-19T23:25:30.076Z,7.50
2024-02-19T23:27:59.075Z,7.50
2024-02-19T23:30:27.926Z,7.50
2024-02-19T23:32:56.809Z,7.50
2024-02-19T23:35:25.002Z,7.50
2024-02-19T23:37:54.177Z,7.50
2024-02-19T23:40:22.614Z,7.50
2024-02-19T23:42:52.162Z,7.60
2024-02-19T23:45:21.055Z,7.50
2024-02-19T23:47:49.292Z,7.50
2024-02-19T23:50:17.493Z,7.50
2024-02-19T23:52:46.648Z,7.50
2024-02-19T23:55:15.474Z,7.50
2024-02-19T23:57:43.725Z,7.50
